sensor_id;sensor_type;location;lat;lon;timestamp;P1;durP1;ratioP1;P2;durP2;ratioP2
35056;SDS011;21241;51.828;19.574;2024-03-23T00:53:00;34.70;;;30.90;;
35056;SDS011;21241;51.828;19.574;2024-03-23T00:55:27;37.10;;;30.00;;
35056;SDS011;21241;51.828;19.574;2024-03-23T00:57:55;36.70;;;30.40;;
35056;SDS011;21241;51.828;19.574;2024-03-23T01:00:22;37.70;;;32.00;;
35056;SDS011;21241;51.828;19.574;2024-03-23T01:02:50;38.30;;;30.50;;
35056;SDS011;21241;51.828;19.574;2024-03-23T01:05:17;36.80;;;30.20;;
35056;SDS011;21241;51.828;19.574;2024-03-23T01:07:45;33.40;;;28.60;;
35056;SDS011;21241;51.828;19.574;2024-03-23T01:10:12;37.10;;;31.40;;
35056;SDS011;21241;51.828;19.574;2024-03-23T01:12:40;36.50;;;32.10;;
35056;SDS011;21241;51.828;19.574;2024-03-23T01:15:08;38.30;;;33.20;;
35056;SDS011;21241;51.828;19.574;2024-03-23T01:17:36;41.90;;;33.90;;
35056;SDS011;21241;51.828;19.574;2024-03-23T01:20:05;39.00;;;33.60;;
35056;SDS011;21241;51.828;19.574;2024-03-23T01:22:33;37.90;;;33.60;;
35056;SDS011;21241;51.828;19.574;2024-03-23T01:25:01;37.90;;;32.60;;
35056;SDS011;21241;51.828;19.574;2024-03-23T01:27:28;34.00;;;29.80;;
35056;SDS011;21241;51.828;19.574;2024-03-23T01:29:56;39.50;;;33.90;;
35056;SDS011;21241;51.828;19.574;2024-03-23T01:32:23;38.00;;;32.80;;
35056;SDS011;21241;51.828;19.574;2024-03-23T01:34:51;38.80;;;34.50;;
35056;SDS011;21241;51.828;19.574;2024-03-23T01:37:18;40.80;;;32.70;;
35056;SDS011;21241;51.828;19.574;2024-03-23T01:39:46;40.40;;;33.90;;
35056;SDS011;21241;51.828;19.574;2024-03-23T01:42:14;40.00;;;33.90;;
35056;SDS011;21241;51.828;19.574;2024-03-23T01:44:41;38.60;;;31.60;;
35056;SDS011;21241;51.828;19.574;2024-03-23T01:47:09;41.80;;;33.20;;
35056;SDS011;21241;51.828;19.574;2024-03-23T01:49:37;40.30;;;33.10;;
35056;SDS011;21241;51.828;19.574;2024-03-23T01:52:04;36.40;;;31.30;;
35056;SDS011;21241;51.828;19.574;2024-03-23T01:54:32;42.10;;;32.70;;
35056;SDS011;21241;51.828;19.574;2024-03-23T01:57:00;37.90;;;31.10;;
35056;SDS011;21241;51.828;19.574;2024-03-23T01:59:27;38.80;;;33.30;;
35056;SDS011;21241;51.828;19.574;2024-03-23T02:01:55;38.60;;;33.50;;
35056;SDS011;21241;51.828;19.574;2024-03-23T02:04:22;38.70;;;31.00;;
35056;SDS011;21241;51.828;19.574;2024-03-23T02:06:50;39.80;;;32.10;;
35056;SDS011;21241;51.828;19.574;2024-03-23T02:09:17;40.00;;;32.80;;
35056;SDS011;21241;51.828;19.574;2024-03-23T02:11:45;41.10;;;32.60;;
35056;SDS011;21241;51.828;19.574;2024-03-23T02:14:12;40.00;;;33.40;;
35056;SDS011;21241;51.828;19.574;2024-03-23T02:16:40;45.10;;;37.50;;
35056;SDS011;21241;51.828;19.574;2024-03-23T02:19:08;45.40;;;36.80;;
35056;SDS011;21241;51.828;19.574;2024-03-23T02:21:36;48.40;;;37.60;;
35056;SDS011;21241;51.828;19.574;2024-03-23T02:24:03;49.70;;;37.30;;
35056;SDS011;21241;51.828;19.574;2024-03-23T02:26:31;48.90;;;39.20;;
35056;SDS011;21241;51.828;19.574;2024-03-23T02:28:58;47.80;;;37.90;;
35056;SDS011;21241;51.828;19.574;2024-03-23T02:31:26;46.70;;;37.40;;
35056;SDS011;21241;51.828;19.574;2024-03-23T02:33:54;47.60;;;37.50;;
35056;SDS011;21241;51.828;19.574;2024-03-23T02:36:21;45.40;;;38.10;;
35056;SDS011;21241;51.828;19.574;2024-03-23T02:38:49;47.70;;;39.10;;
35056;SDS011;21241;51.828;19.574;2024-03-23T02:41:16;48.70;;;39.60;;
35056;SDS011;21241;51.828;19.574;2024-03-23T02:43:50;48.90;;;39.30;;
35056;SDS011;21241;51.828;19.574;2024-03-23T02:46:17;46.10;;;38.60;;
35056;SDS011;21241;51.828;19.574;2024-03-23T02:48:45;41.10;;;34.70;;
35056;SDS011;21241;51.828;19.574;2024-03-23T02:51:12;47.20;;;35.50;;
35056;SDS011;21241;51.828;19.574;2024-03-23T02:53:39;42.40;;;35.30;;
35056;SDS011;21241;51.828;19.574;2024-03-23T02:56:07;43.50;;;37.10;;
35056;SDS011;21241;51.828;19.574;2024-03-23T02:58:35;43.50;;;35.20;;
35056;SDS011;21241;51.828;19.574;2024-03-23T03:01:03;46.80;;;36.90;;
35056;SDS011;21241;51.828;19.574;2024-03-23T03:03:30;43.70;;;35.20;;
35056;SDS011;21241;51.828;19.574;2024-03-23T03:05:58;45.70;;;36.80;;
35056;SDS011;21241;51.828;19.574;2024-03-23T03:08:26;42.70;;;34.40;;
35056;SDS011;21241;51.828;19.574;2024-03-23T03:10:53;42.30;;;34.00;;
35056;SDS011;21241;51.828;19.574;2024-03-23T03:13:20;38.80;;;33.00;;
35056;SDS011;21241;51.828;19.574;2024-03-23T03:15:48;42.50;;;34.40;;
35056;SDS011;21241;51.828;19.574;2024-03-23T03:18:15;38.90;;;32.60;;
35056;SDS011;21241;51.828;19.574;2024-03-23T03:20:43;39.80;;;33.40;;
35056;SDS011;21241;51.828;19.574;2024-03-23T03:23:11;36.60;;;30.40;;
35056;SDS011;21241;51.828;19.574;2024-03-23T03:25:38;39.00;;;32.20;;
35056;SDS011;21241;51.828;19.574;2024-03-23T03:28:06;39.40;;;32.20;;
35056;SDS011;21241;51.828;19.574;2024-03-23T03:30:33;39.60;;;34.30;;
35056;SDS011;21241;51.828;19.574;2024-03-23T03:33:01;41.40;;;32.90;;
35056;SDS011;21241;51.828;19.574;2024-03-23T03:35:28;48.20;;;35.60;;
35056;SDS011;21241;51.828;19.574;2024-03-23T03:37:57;46.60;;;37.10;;
35056;SDS011;21241;51.828;19.574;2024-03-23T03:40:24;46.40;;;36.30;;
35056;SDS011;21241;51.828;19.574;2024-03-23T03:42:52;48.90;;;36.90;;
35056;SDS011;21241;51.828;19.574;2024-03-23T03:45:20;49.90;;;38.40;;
35056;SDS011;21241;51.828;19.574;2024-03-23T03:47:47;47.60;;;36.80;;
35056;SDS011;21241;51.828;19.574;2024-03-23T03:50:15;49.10;;;37.60;;
35056;SDS011;21241;51.828;19.574;2024-03-23T03:52:43;48.60;;;35.70;;
35056;SDS011;21241;51.828;19.574;2024-03-23T03:55:14;51.90;;;34.90;;
35056;SDS011;21241;51.828;19.574;2024-03-23T03:57:42;48.80;;;35.00;;
35056;SDS011;21241;51.828;19.574;2024-03-23T04:00:09;47.80;;;36.60;;
35056;SDS011;21241;51.828;19.574;2024-03-23T04:02:38;48.40;;;36.30;;
35056;SDS011;21241;51.828;19.574;2024-03-23T04:05:06;54.10;;;37.70;;
35056;SDS011;21241;51.828;19.574;2024-03-23T04:07:35;53.60;;;36.50;;
35056;SDS011;21241;51.828;19.574;2024-03-23T04:10:02;54.60;;;36.80;;
35056;SDS011;21241;51.828;19.574;2024-03-23T04:12:34;51.70;;;37.00;;
35056;SDS011;21241;51.828;19.574;2024-03-23T04:15:02;55.90;;;37.50;;
35056;SDS011;21241;51.828;19.574;2024-03-23T04:17:32;53.60;;;37.60;;
35056;SDS011;21241;51.828;19.574;2024-03-23T04:20:01;54.20;;;38.80;;
35056;SDS011;21241;51.828;19.574;2024-03-23T04:22:30;51.20;;;38.30;;
35056;SDS011;21241;51.828;19.574;2024-03-23T04:24:57;56.00;;;38.00;;
35056;SDS011;21241;51.828;19.574;2024-03-23T04:27:25;53.80;;;38.50;;
35056;SDS011;21241;51.828;19.574;2024-03-23T04:29:53;53.20;;;37.20;;
35056;SDS011;21241;51.828;19.574;2024-03-23T04:32:20;52.90;;;36.70;;
35056;SDS011;21241;51.828;19.574;2024-03-23T04:34:48;52.60;;;36.80;;
35056;SDS011;21241;51.828;19.574;2024-03-23T04:37:15;48.30;;;35.70;;
35056;SDS011;21241;51.828;19.574;2024-03-23T04:39:43;50.40;;;35.50;;
35056;SDS011;21241;51.828;19.574;2024-03-23T04:42:11;51.70;;;34.80;;
35056;SDS011;21241;51.828;19.574;2024-03-23T04:44:39;48.90;;;33.10;;
35056;SDS011;21241;51.828;19.574;2024-03-23T04:47:06;47.80;;;33.10;;
35056;SDS011;21241;51.828;19.574;2024-03-23T04:49:34;46.40;;;32.30;;
35056;SDS011;21241;51.828;19.574;2024-03-23T04:52:04;44.10;;;31.70;;
35056;SDS011;21241;51.828;19.574;2024-03-23T04:54:32;44.20;;;31.50;;
35056;SDS011;21241;51.828;19.574;2024-03-23T04:57:00;44.40;;;31.40;;
35056;SDS011;21241;51.828;19.574;2024-03-23T04:59:28;44.80;;;30.80;;
35056;SDS011;21241;51.828;19.574;2024-03-23T05:01:55;43.20;;;30.50;;
35056;SDS011;21241;51.828;19.574;2024-03-23T05:04:23;44.40;;;30.30;;
35056;SDS011;21241;51.828;19.574;2024-03-23T05:06:50;42.70;;;31.40;;
35056;SDS011;21241;51.828;19.574;2024-03-23T05:09:18;40.20;;;29.90;;
35056;SDS011;21241;51.828;19.574;2024-03-23T05:11:45;37.70;;;28.30;;
35056;SDS011;21241;51.828;19.574;2024-03-23T05:14:13;41.80;;;30.70;;
35056;SDS011;21241;51.828;19.574;2024-03-23T05:16:41;40.30;;;31.00;;
35056;SDS011;21241;51.828;19.574;2024-03-23T05:19:08;41.10;;;29.30;;
35056;SDS011;21241;51.828;19.574;2024-03-23T05:21:36;40.50;;;29.40;;
35056;SDS011;21241;51.828;19.574;2024-03-23T05:24:04;40.80;;;29.50;;
35056;SDS011;21241;51.828;19.574;2024-03-23T05:26:31;36.50;;;28.40;;
35056;SDS011;21241;51.828;19.574;2024-03-23T05:29:01;39.00;;;28.30;;
35056;SDS011;21241;51.828;19.574;2024-03-23T05:31:30;44.40;;;30.10;;
35056;SDS011;21241;51.828;19.574;2024-03-23T05:33:58;38.30;;;28.30;;
35056;SDS011;21241;51.828;19.574;2024-03-23T05:36:26;36.90;;;27.80;;
35056;SDS011;21241;51.828;19.574;2024-03-23T05:38:53;38.70;;;27.00;;
35056;SDS011;21241;51.828;19.574;2024-03-23T05:41:21;37.70;;;28.50;;
35056;SDS011;21241;51.828;19.574;2024-03-23T05:43:50;41.80;;;28.90;;
35056;SDS011;21241;51.828;19.574;2024-03-23T05:46:18;35.20;;;27.00;;
35056;SDS011;21241;51.828;19.574;2024-03-23T05:48:46;36.00;;;26.60;;
35056;SDS011;21241;51.828;19.574;2024-03-23T05:51:14;34.90;;;25.70;;
35056;SDS011;21241;51.828;19.574;2024-03-23T05:53:42;33.20;;;26.00;;
35056;SDS011;21241;51.828;19.574;2024-03-23T05:56:09;33.30;;;26.00;;
35056;SDS011;21241;51.828;19.574;2024-03-23T05:58:37;34.10;;;26.30;;
35056;SDS011;21241;51.828;19.574;2024-03-23T06:01:04;33.80;;;26.00;;
35056;SDS011;21241;51.828;19.574;2024-03-23T06:03:32;32.50;;;26.00;;
35056;SDS011;21241;51.828;19.574;2024-03-23T06:05:59;34.30;;;25.20;;
35056;SDS011;21241;51.828;19.574;2024-03-23T06:08:27;28.30;;;24.30;;
35056;SDS011;21241;51.828;19.574;2024-03-23T06:10:54;31.80;;;25.10;;
35056;SDS011;21241;51.828;19.574;2024-03-23T06:13:22;33.10;;;25.30;;
35056;SDS011;21241;51.828;19.574;2024-03-23T06:15:57;32.30;;;25.50;;
35056;SDS011;21241;51.828;19.574;2024-03-23T06:18:25;29.50;;;24.20;;
35056;SDS011;21241;51.828;19.574;2024-03-23T06:20:53;30.20;;;24.10;;
35056;SDS011;21241;51.828;19.574;2024-03-23T06:23:21;31.90;;;23.40;;
35056;SDS011;21241;51.828;19.574;2024-03-23T06:25:48;30.00;;;23.00;;
35056;SDS011;21241;51.828;19.574;2024-03-23T06:28:16;28.70;;;23.40;;
35056;SDS011;21241;51.828;19.574;2024-03-23T06:30:45;27.70;;;23.40;;
35056;SDS011;21241;51.828;19.574;2024-03-23T06:33:13;29.00;;;23.90;;
35056;SDS011;21241;51.828;19.574;2024-03-23T06:35:40;29.30;;;22.00;;
35056;SDS011;21241;51.828;19.574;2024-03-23T06:38:08;32.00;;;24.00;;
35056;SDS011;21241;51.828;19.574;2024-03-23T06:40:36;28.40;;;22.30;;
35056;SDS011;21241;51.828;19.574;2024-03-23T06:43:03;31.00;;;23.90;;
35056;SDS011;21241;51.828;19.574;2024-03-23T06:45:31;29.70;;;22.70;;
35056;SDS011;21241;51.828;19.574;2024-03-23T06:47:58;28.60;;;22.60;;
35056;SDS011;21241;51.828;19.574;2024-03-23T06:50:26;29.00;;;22.30;;
35056;SDS011;21241;51.828;19.574;2024-03-23T06:52:55;28.10;;;22.70;;
35056;SDS011;21241;51.828;19.574;2024-03-23T06:55:22;30.10;;;23.30;;
35056;SDS011;21241;51.828;19.574;2024-03-23T06:57:52;30.40;;;23.20;;
35056;SDS011;21241;51.828;19.574;2024-03-23T07:00:19;27.90;;;23.20;;
35056;SDS011;21241;51.828;19.574;2024-03-23T07:02:47;25.40;;;21.80;;
35056;SDS011;21241;51.828;19.574;2024-03-23T07:05:14;25.20;;;20.80;;
35056;SDS011;21241;51.828;19.574;2024-03-23T07:07:42;26.20;;;22.60;;
35056;SDS011;21241;51.828;19.574;2024-03-23T07:10:09;26.50;;;22.00;;
35056;SDS011;21241;51.828;19.574;2024-03-23T07:12:37;26.30;;;22.20;;
35056;SDS011;21241;51.828;19.574;2024-03-23T07:15:04;27.30;;;22.20;;
35056;SDS011;21241;51.828;19.574;2024-03-23T07:17:32;24.50;;;21.90;;
35056;SDS011;21241;51.828;19.574;2024-03-23T07:20:02;23.40;;;20.90;;
35056;SDS011;21241;51.828;19.574;2024-03-23T07:22:31;23.70;;;20.70;;
35056;SDS011;21241;51.828;19.574;2024-03-23T07:25:00;22.80;;;20.30;;
35056;SDS011;21241;51.828;19.574;2024-03-23T07:27:28;23.10;;;20.60;;
35056;SDS011;21241;51.828;19.574;2024-03-23T07:29:56;23.00;;;20.60;;
35056;SDS011;21241;51.828;19.574;2024-03-23T07:32:23;23.60;;;21.10;;
35056;SDS011;21241;51.828;19.574;2024-03-23T07:34:51;21.70;;;19.50;;
35056;SDS011;21241;51.828;19.574;2024-03-23T07:37:18;20.80;;;18.60;;
35056;SDS011;21241;51.828;19.574;2024-03-23T07:39:46;20.10;;;18.10;;
35056;SDS011;21241;51.828;19.574;2024-03-23T07:42:13;19.10;;;17.20;;
35056;SDS011;21241;51.828;19.574;2024-03-23T07:44:42;18.90;;;17.00;;
35056;SDS011;21241;51.828;19.574;2024-03-23T07:47:09;17.70;;;16.00;;
35056;SDS011;21241;51.828;19.574;2024-03-23T07:49:36;17.30;;;15.60;;
35056;SDS011;21241;51.828;19.574;2024-03-23T07:52:04;18.40;;;16.50;;
35056;SDS011;21241;51.828;19.574;2024-03-23T07:54:32;17.80;;;16.00;;
35056;SDS011;21241;51.828;19.574;2024-03-23T07:56:59;18.10;;;16.20;;
35056;SDS011;21241;51.828;19.574;2024-03-23T07:59:27;18.30;;;16.30;;
35056;SDS011;21241;51.828;19.574;2024-03-23T08:01:55;17.30;;;15.60;;
35056;SDS011;21241;51.828;19.574;2024-03-23T08:04:24;17.60;;;15.90;;
35056;SDS011;21241;51.828;19.574;2024-03-23T08:06:51;16.40;;;14.80;;
35056;SDS011;21241;51.828;19.574;2024-03-23T08:09:19;14.80;;;13.30;;
35056;SDS011;21241;51.828;19.574;2024-03-23T08:11:47;15.30;;;13.90;;
35056;SDS011;21241;51.828;19.574;2024-03-23T08:14:14;15.00;;;13.60;;
35056;SDS011;21241;51.828;19.574;2024-03-23T08:16:42;16.00;;;14.40;;
35056;SDS011;21241;51.828;19.574;2024-03-23T08:19:15;16.40;;;14.70;;
35056;SDS011;21241;51.828;19.574;2024-03-23T08:21:43;14.20;;;12.90;;
35056;SDS011;21241;51.828;19.574;2024-03-23T08:24:10;15.70;;;14.20;;
35056;SDS011;21241;51.828;19.574;2024-03-23T08:26:38;15.80;;;14.30;;
35056;SDS011;21241;51.828;19.574;2024-03-23T08:29:07;15.40;;;13.00;;
35056;SDS011;21241;51.828;19.574;2024-03-23T08:31:34;14.70;;;13.30;;
35056;SDS011;21241;51.828;19.574;2024-03-23T08:34:02;13.90;;;12.60;;
35056;SDS011;21241;51.828;19.574;2024-03-23T08:36:29;14.20;;;12.80;;
35056;SDS011;21241;51.828;19.574;2024-03-23T08:38:58;13.90;;;12.50;;
35056;SDS011;21241;51.828;19.574;2024-03-23T08:41:29;13.60;;;12.30;;
35056;SDS011;21241;51.828;19.574;2024-03-23T08:43:56;13.20;;;12.00;;
35056;SDS011;21241;51.828;19.574;2024-03-23T08:46:23;12.70;;;11.50;;
35056;SDS011;21241;51.828;19.574;2024-03-23T08:48:51;13.30;;;12.00;;
35056;SDS011;21241;51.828;19.574;2024-03-23T08:51:20;13.00;;;11.80;;
35056;SDS011;21241;51.828;19.574;2024-03-23T08:53:47;12.20;;;11.00;;
35056;SDS011;21241;51.828;19.574;2024-03-23T08:56:15;13.20;;;12.00;;
35056;SDS011;21241;51.828;19.574;2024-03-23T08:58:43;12.80;;;11.60;;
35056;SDS011;21241;51.828;19.574;2024-03-23T09:01:11;12.30;;;11.20;;
35056;SDS011;21241;51.828;19.574;2024-03-23T09:03:43;13.50;;;12.20;;
35056;SDS011;21241;51.828;19.574;2024-03-23T09:06:11;13.00;;;11.80;;
35056;SDS011;21241;51.828;19.574;2024-03-23T09:08:40;13.30;;;12.00;;
35056;SDS011;21241;51.828;19.574;2024-03-23T09:11:09;12.70;;;11.40;;
35056;SDS011;21241;51.828;19.574;2024-03-23T09:13:37;13.00;;;11.80;;
35056;SDS011;21241;51.828;19.574;2024-03-23T09:16:06;12.60;;;11.30;;
35056;SDS011;21241;51.828;19.574;2024-03-23T09:18:34;12.50;;;11.30;;
35056;SDS011;21241;51.828;19.574;2024-03-23T09:21:03;12.90;;;11.80;;
35056;SDS011;21241;51.828;19.574;2024-03-23T09:23:31;12.50;;;11.30;;
35056;SDS011;21241;51.828;19.574;2024-03-23T09:26:02;12.30;;;11.20;;
35056;SDS011;21241;51.828;19.574;2024-03-23T09:28:30;13.80;;;12.50;;
35056;SDS011;21241;51.828;19.574;2024-03-23T09:31:04;13.50;;;12.30;;
35056;SDS011;21241;51.828;19.574;2024-03-23T09:33:32;14.50;;;13.10;;
35056;SDS011;21241;51.828;19.574;2024-03-23T09:36:04;13.50;;;12.20;;
35056;SDS011;21241;51.828;19.574;2024-03-23T09:38:32;13.70;;;12.40;;
35056;SDS011;21241;51.828;19.574;2024-03-23T09:41:00;12.70;;;11.50;;
35056;SDS011;21241;51.828;19.574;2024-03-23T09:43:27;13.70;;;12.50;;
35056;SDS011;21241;51.828;19.574;2024-03-23T09:45:55;13.70;;;12.50;;
35056;SDS011;21241;51.828;19.574;2024-03-23T09:48:23;13.20;;;12.00;;
35056;SDS011;21241;51.828;19.574;2024-03-23T09:50:50;13.90;;;12.50;;
35056;SDS011;21241;51.828;19.574;2024-03-23T09:53:18;14.50;;;13.10;;
35056;SDS011;21241;51.828;19.574;2024-03-23T09:55:45;13.50;;;12.20;;
35056;SDS011;21241;51.828;19.574;2024-03-23T09:58:13;13.10;;;11.90;;
35056;SDS011;21241;51.828;19.574;2024-03-23T10:00:42;14.00;;;12.80;;
35056;SDS011;21241;51.828;19.574;2024-03-23T10:03:10;14.00;;;12.70;;
35056;SDS011;21241;51.828;19.574;2024-03-23T10:05:38;13.70;;;12.50;;
35056;SDS011;21241;51.828;19.574;2024-03-23T10:10:42;12.00;;;10.90;;
35056;SDS011;21241;51.828;19.574;2024-03-23T10:13:10;13.20;;;11.90;;
35056;SDS011;21241;51.828;19.574;2024-03-23T10:15:40;11.70;;;10.70;;
35056;SDS011;21241;51.828;19.574;2024-03-23T10:18:18;11.40;;;10.40;;
35056;SDS011;21241;51.828;19.574;2024-03-23T10:20:50;11.70;;;10.80;;
35056;SDS011;21241;51.828;19.574;2024-03-23T10:23:19;11.80;;;10.70;;
35056;SDS011;21241;51.828;19.574;2024-03-23T10:25:47;12.10;;;11.10;;
35056;SDS011;21241;51.828;19.574;2024-03-23T10:28:14;12.10;;;11.10;;
35056;SDS011;21241;51.828;19.574;2024-03-23T10:30:42;11.80;;;10.70;;
35056;SDS011;21241;51.828;19.574;2024-03-23T10:33:10;12.10;;;11.00;;
35056;SDS011;21241;51.828;19.574;2024-03-23T10:35:38;11.50;;;10.40;;
35056;SDS011;21241;51.828;19.574;2024-03-23T10:38:07;11.90;;;10.90;;
35056;SDS011;21241;51.828;19.574;2024-03-23T10:40:35;11.90;;;10.90;;
35056;SDS011;21241;51.828;19.574;2024-03-23T10:43:03;11.50;;;10.40;;
35056;SDS011;21241;51.828;19.574;2024-03-23T10:45:32;12.00;;;10.90;;
35056;SDS011;21241;51.828;19.574;2024-03-23T10:47:59;10.70;;;9.80;;
35056;SDS011;21241;51.828;19.574;2024-03-23T10:50:27;11.00;;;10.00;;
35056;SDS011;21241;51.828;19.574;2024-03-23T10:52:55;11.60;;;10.60;;
35056;SDS011;21241;51.828;19.574;2024-03-23T10:55:26;11.10;;;10.10;;
35056;SDS011;21241;51.828;19.574;2024-03-23T10:57:55;10.10;;;9.30;;
35056;SDS011;21241;51.828;19.574;2024-03-23T11:00:25;10.30;;;9.30;;
35056;SDS011;21241;51.828;19.574;2024-03-23T11:02:53;11.00;;;10.10;;
35056;SDS011;21241;51.828;19.574;2024-03-23T11:07:51;10.60;;;9.60;;
35056;SDS011;21241;51.828;19.574;2024-03-23T11:10:29;9.90;;;9.10;;
35056;SDS011;21241;51.828;19.574;2024-03-23T11:12:58;9.00;;;8.30;;
35056;SDS011;21241;51.828;19.574;2024-03-23T11:15:26;9.00;;;8.20;;
35056;SDS011;21241;51.828;19.574;2024-03-23T11:20:36;9.40;;;8.60;;
35056;SDS011;21241;51.828;19.574;2024-03-23T11:23:04;9.60;;;8.80;;
35056;SDS011;21241;51.828;19.574;2024-03-23T11:25:31;8.40;;;7.70;;
35056;SDS011;21241;51.828;19.574;2024-03-23T11:28:12;9.20;;;8.40;;
35056;SDS011;21241;51.828;19.574;2024-03-23T11:30:40;9.60;;;8.80;;
35056;SDS011;21241;51.828;19.574;2024-03-23T11:33:07;9.70;;;8.90;;
35056;SDS011;21241;51.828;19.574;2024-03-23T11:35:38;9.40;;;8.60;;
35056;SDS011;21241;51.828;19.574;2024-03-23T11:38:16;9.00;;;8.20;;
35056;SDS011;21241;51.828;19.574;2024-03-23T11:40:50;10.50;;;9.50;;
35056;SDS011;21241;51.828;19.574;2024-03-23T11:43:18;10.90;;;9.90;;
35056;SDS011;21241;51.828;19.574;2024-03-23T11:45:48;10.60;;;9.50;;
35056;SDS011;21241;51.828;19.574;2024-03-23T11:48:22;9.70;;;8.90;;
35056;SDS011;21241;51.828;19.574;2024-03-23T11:50:53;11.60;;;10.50;;
35056;SDS011;21241;51.828;19.574;2024-03-23T11:53:25;10.90;;;10.00;;
35056;SDS011;21241;51.828;19.574;2024-03-23T11:55:56;11.10;;;10.10;;
35056;SDS011;21241;51.828;19.574;2024-03-23T11:58:25;11.20;;;10.20;;
35056;SDS011;21241;51.828;19.574;2024-03-23T12:00:57;11.30;;;10.40;;
35056;SDS011;21241;51.828;19.574;2024-03-23T12:03:26;11.10;;;10.10;;
35056;SDS011;21241;51.828;19.574;2024-03-23T12:05:58;12.30;;;11.20;;
35056;SDS011;21241;51.828;19.574;2024-03-23T12:08:31;10.90;;;10.00;;
35056;SDS011;21241;51.828;19.574;2024-03-23T12:11:06;11.70;;;10.70;;
35056;SDS011;21241;51.828;19.574;2024-03-23T12:13:44;11.30;;;10.40;;
35056;SDS011;21241;51.828;19.574;2024-03-23T12:18:42;11.40;;;10.50;;
35056;SDS011;21241;51.828;19.574;2024-03-23T12:21:11;10.50;;;9.60;;
35056;SDS011;21241;51.828;19.574;2024-03-23T12:23:39;11.10;;;10.00;;
35056;SDS011;21241;51.828;19.574;2024-03-23T12:26:07;11.70;;;10.50;;
35056;SDS011;21241;51.828;19.574;2024-03-23T12:28:34;11.40;;;10.40;;
35056;SDS011;21241;51.828;19.574;2024-03-23T12:31:02;10.90;;;10.00;;
35056;SDS011;21241;51.828;19.574;2024-03-23T12:33:30;10.90;;;9.90;;
35056;SDS011;21241;51.828;19.574;2024-03-23T12:35:57;11.60;;;10.40;;
35056;SDS011;21241;51.828;19.574;2024-03-23T12:38:24;12.20;;;11.00;;
35056;SDS011;21241;51.828;19.574;2024-03-23T12:40:52;10.70;;;9.80;;
35056;SDS011;21241;51.828;19.574;2024-03-23T12:43:20;11.20;;;10.20;;
35056;SDS011;21241;51.828;19.574;2024-03-23T12:45:47;11.40;;;10.40;;
35056;SDS011;21241;51.828;19.574;2024-03-23T12:48:16;10.60;;;9.80;;
35056;SDS011;21241;51.828;19.574;2024-03-23T12:50:43;11.00;;;9.90;;
35056;SDS011;21241;51.828;19.574;2024-03-23T12:53:11;10.70;;;9.80;;
35056;SDS011;21241;51.828;19.574;2024-03-23T12:55:39;10.90;;;9.90;;
35056;SDS011;21241;51.828;19.574;2024-03-23T12:58:06;11.30;;;10.30;;
35056;SDS011;21241;51.828;19.574;2024-03-23T13:00:34;11.50;;;10.40;;
35056;SDS011;21241;51.828;19.574;2024-03-23T13:03:02;10.80;;;9.90;;
35056;SDS011;21241;51.828;19.574;2024-03-23T13:05:32;10.70;;;9.80;;
35056;SDS011;21241;51.828;19.574;2024-03-23T13:07:59;10.30;;;9.50;;
35056;SDS011;21241;51.828;19.574;2024-03-23T13:10:27;11.40;;;10.50;;
35056;SDS011;21241;51.828;19.574;2024-03-23T13:12:54;11.50;;;10.40;;
35056;SDS011;21241;51.828;19.574;2024-03-23T13:15:22;10.30;;;9.50;;
35056;SDS011;21241;51.828;19.574;2024-03-23T13:17:50;11.90;;;10.80;;
35056;SDS011;21241;51.828;19.574;2024-03-23T13:20:19;11.20;;;9.60;;
35056;SDS011;21241;51.828;19.574;2024-03-23T13:22:47;10.80;;;9.90;;
35056;SDS011;21241;51.828;19.574;2024-03-23T13:25:15;10.70;;;9.70;;
35056;SDS011;21241;51.828;19.574;2024-03-23T13:27:42;10.30;;;9.50;;
35056;SDS011;21241;51.828;19.574;2024-03-23T13:30:11;10.50;;;9.50;;
35056;SDS011;21241;51.828;19.574;2024-03-23T13:32:39;10.20;;;9.40;;
35056;SDS011;21241;51.828;19.574;2024-03-23T13:35:07;10.60;;;9.60;;
35056;SDS011;21241;51.828;19.574;2024-03-23T13:37:34;11.20;;;10.30;;
35056;SDS011;21241;51.828;19.574;2024-03-23T13:40:02;11.00;;;10.00;;
35056;SDS011;21241;51.828;19.574;2024-03-23T13:42:30;11.00;;;10.10;;
35056;SDS011;21241;51.828;19.574;2024-03-23T13:44:57;11.40;;;10.40;;
35056;SDS011;21241;51.828;19.574;2024-03-23T13:47:25;12.40;;;11.20;;
35056;SDS011;21241;51.828;19.574;2024-03-23T13:49:52;11.80;;;10.80;;
35056;SDS011;21241;51.828;19.574;2024-03-23T13:52:20;12.40;;;11.30;;
35056;SDS011;21241;51.828;19.574;2024-03-23T13:54:50;12.90;;;11.10;;
35056;SDS011;21241;51.828;19.574;2024-03-23T13:57:17;13.30;;;12.20;;
35056;SDS011;21241;51.828;19.574;2024-03-23T13:59:48;14.80;;;13.50;;
35056;SDS011;21241;51.828;19.574;2024-03-23T14:02:16;15.80;;;14.30;;
35056;SDS011;21241;51.828;19.574;2024-03-23T14:04:44;18.00;;;16.40;;
35056;SDS011;21241;51.828;19.574;2024-03-23T14:07:11;16.80;;;15.30;;
35056;SDS011;21241;51.828;19.574;2024-03-23T14:09:38;18.50;;;16.70;;
35056;SDS011;21241;51.828;19.574;2024-03-23T14:12:06;19.90;;;18.10;;
35056;SDS011;21241;51.828;19.574;2024-03-23T14:14:36;21.60;;;19.50;;
35056;SDS011;21241;51.828;19.574;2024-03-23T14:17:03;22.00;;;20.00;;
35056;SDS011;21241;51.828;19.574;2024-03-23T14:19:31;19.90;;;18.20;;
35056;SDS011;21241;51.828;19.574;2024-03-23T14:21:59;20.10;;;18.20;;
35056;SDS011;21241;51.828;19.574;2024-03-23T14:24:28;19.60;;;18.00;;
35056;SDS011;21241;51.828;19.574;2024-03-23T14:26:56;21.60;;;19.70;;
35056;SDS011;21241;51.828;19.574;2024-03-23T14:29:23;20.90;;;19.00;;
35056;SDS011;21241;51.828;19.574;2024-03-23T14:31:50;22.60;;;20.60;;
35056;SDS011;21241;51.828;19.574;2024-03-23T14:34:18;21.90;;;20.00;;
35056;SDS011;21241;51.828;19.574;2024-03-23T14:36:46;23.70;;;21.60;;
35056;SDS011;21241;51.828;19.574;2024-03-23T14:39:13;23.70;;;21.50;;
35056;SDS011;21241;51.828;19.574;2024-03-23T14:41:42;23.50;;;21.60;;
35056;SDS011;21241;51.828;19.574;2024-03-23T14:44:10;26.10;;;23.70;;
35056;SDS011;21241;51.828;19.574;2024-03-23T14:46:37;27.40;;;24.90;;
35056;SDS011;21241;51.828;19.574;2024-03-23T14:49:05;26.00;;;23.90;;
35056;SDS011;21241;51.828;19.574;2024-03-23T14:51:32;27.90;;;25.30;;
35056;SDS011;21241;51.828;19.574;2024-03-23T14:54:00;28.00;;;25.50;;
35056;SDS011;21241;51.828;19.574;2024-03-23T14:56:28;28.60;;;26.10;;
35056;SDS011;21241;51.828;19.574;2024-03-23T14:58:55;26.10;;;23.70;;
35056;SDS011;21241;51.828;19.574;2024-03-23T15:01:23;27.50;;;25.00;;
35056;SDS011;21241;51.828;19.574;2024-03-23T15:03:51;24.10;;;21.90;;
35056;SDS011;21241;51.828;19.574;2024-03-23T15:06:21;24.40;;;22.40;;
35056;SDS011;21241;51.828;19.574;2024-03-23T15:08:48;21.70;;;19.70;;
35056;SDS011;21241;51.828;19.574;2024-03-23T15:11:16;20.00;;;18.30;;
35056;SDS011;21241;51.828;19.574;2024-03-23T15:13:49;18.60;;;17.00;;
35056;SDS011;21241;51.828;19.574;2024-03-23T15:16:17;17.70;;;16.10;;
35056;SDS011;21241;51.828;19.574;2024-03-23T15:18:49;22.60;;;20.40;;